Time;durP1;ratioP1;P1;durP2;ratioP2;P2;SDS_P1;SDS_P2;PMS_P1;PMS_P2;Temp;Humidity;BMP_temperature;BMP_pressure;BME280_temperature;BME280_humidity;BME280_pressure;Samples;Min_cycle;Max_cycle;Signal;HPM_P1;HPM_P2
2023/05/17 00:00:31;;;;;;;3.17;1.80;;;;;;;-145.69;100.00;52670.16;5074602;28;20252;-84
2023/05/17 00:02:59;;;;;;;6.10;1.40;;;;;;;-145.69;100.00;52680.06;5056197;28;20207;-84
2023/05/17 00:05:26;;;;;;;5.93;1.90;;;;;;;-145.69;100.00;52638.47;5075735;28;20209;-84
2023/05/17 00:07:52;;;;;;;4.73;2.03;;;;;;;-145.69;100.00;52678.09;5075813;28;20199;-84
2023/05/17 00:10:19;;;;;;;5.53;2.20;;;;;;;-145.69;100.00;52638.47;5057932;28;20204;-83
2023/05/17 00:12:45;;;;;;;6.93;2.70;;;;;;;-145.69;100.00;52646.41;5055979;28;20210;-85
2023/05/17 00:15:13;;;;;;;5.60;2.43;;;;;;;-145.69;100.00;52658.28;5071340;28;20227;-85
2023/05/17 00:17:39;;;;;;;12.60;2.50;;;;;;;-145.69;100.00;52666.19;5070667;28;20274;-85
2023/05/17 00:20:09;;;;;;;5.03;2.27;;;;;;;-145.69;100.00;52658.28;5055708;28;20199;-84
2023/05/17 00:22:35;;;;;;;3.43;2.13;;;;;;;-145.69;100.00;52642.44;5055592;28;20204;-84
2023/05/17 00:25:02;;;;;;;6.37;2.20;;;;;;;-145.69;100.00;52650.34;5055539;28;20199;-84
2023/05/17 00:27:29;;;;;;;7.93;2.27;;;;;;;-145.69;100.00;52642.44;5056075;28;20196;-85
2023/05/17 00:29:55;;;;;;;8.47;2.40;;;;;;;-145.69;100.00;52646.41;5055647;28;20208;-84
2023/05/17 00:32:22;;;;;;;7.93;2.77;;;;;;;-145.69;100.00;52678.09;5055677;28;20196;-84
2023/05/17 00:34:48;;;;;;;6.80;2.50;;;;;;;-145.69;100.00;52656.28;5055837;28;20199;-84
2023/05/17 00:37:16;;;;;;;14.53;3.20;;;;;;;-145.69;100.00;52642.44;5055754;28;20238;-84
2023/05/17 00:39:43;;;;;;;8.53;2.30;;;;;;;-145.69;100.00;52654.31;5056030;28;20701;-85
2023/05/17 00:42:11;;;;;;;9.63;2.33;;;;;;;-145.69;100.00;52680.06;5055833;28;20199;-84
2023/05/17 00:44:37;;;;;;;6.03;2.37;;;;;;;-145.69;100.00;52634.50;5055580;28;20721;-83
2023/05/17 00:47:04;;;;;;;3.57;1.90;;;;;;;-145.69;100.00;52658.28;5055106;28;20207;-84
2023/05/17 00:49:30;;;;;;;5.53;1.80;;;;;;;-145.69;100.00;52693.94;5054461;28;20199;-83
2023/05/17 00:51:58;;;;;;;5.67;2.73;;;;;;;-145.69;100.00;52630.53;5053608;28;20207;-83
2023/05/17 00:54:26;;;;;;;11.60;2.17;;;;;;;-145.69;100.00;52658.28;5054651;28;20191;-83
2023/05/17 00:57:05;;;;;;;9.43;2.30;;;;;;;-145.69;100.00;52693.94;5054950;28;20765;-84
2023/05/17 00:59:32;;;;;;;5.23;2.00;;;;;;;-145.69;100.00;52646.41;5054969;28;20195;-83
2023/05/17 01:01:59;;;;;;;7.57;2.03;;;;;;;-145.69;100.00;52648.38;5054513;28;20204;-84
2023/05/17 01:04:25;;;;;;;9.27;1.90;;;;;;;-145.69;100.00;52658.28;5054181;28;20195;-84
2023/05/17 01:06:52;;;;;;;4.03;2.37;;;;;;;-145.69;100.00;52670.16;5054762;28;20206;-83
2023/05/17 01:09:18;;;;;;;3.83;2.07;;;;;;;-145.69;100.00;52701.84;5054448;28;20222;-84
2023/05/17 01:11:54;;;;;;;7.60;2.33;;;;;;;-145.69;100.00;52670.16;5054855;28;20230;-84
2023/05/17 01:14:33;;;;;;;8.03;2.00;;;;;;;-145.69;100.00;52630.53;5054367;28;20199;-83
2023/05/17 01:17:05;;;;;;;8.23;2.27;;;;;;;-145.69;100.00;52646.41;5027568;28;20226;-84
2023/05/17 01:19:53;;;;;;;9.27;2.40;;;;;;;-145.69;100.00;52646.41;5054625;28;20195;-83
2023/05/17 01:22:32;;;;;;;6.50;2.40;;;;;;;-145.69;100.00;52656.28;5054550;28;20207;-84
2023/05/17 01:25:11;;;;;;;8.50;2.33;;;;;;;-145.69;100.00;52687.97;5054144;28;20199;-84
2023/05/17 01:27:42;;;;;;;5.33;2.33;;;;;;;-145.69;100.00;52642.44;5054662;28;20223;-83
2023/05/17 01:30:11;;;;;;;8.67;2.33;;;;;;;-145.69;100.00;52650.34;5056052;28;20191;-84
2023/05/17 01:32:40;;;;;;;7.97;2.47;;;;;;;-145.69;100.00;52654.31;5062426;28;20240;-85
2023/05/17 01:35:07;;;;;;;7.27;2.33;;;;;;;-145.69;100.00;52650.34;5074009;28;20543;-83
2023/05/17 01:37:34;;;;;;;6.13;2.20;;;;;;;-145.69;100.00;52648.38;5074104;28;20226;-84
2023/05/17 01:40:01;;;;;;;6.47;1.93;;;;;;;-145.69;100.00;52650.34;5073982;28;20202;-84
2023/05/17 01:42:31;;;;;;;6.37;1.90;;;;;;;-145.69;100.00;52650.34;5074100;28;20203;-84
2023/05/17 01:45:06;;;;;;;6.70;2.20;;;;;;;-145.69;100.00;52680.06;5071750;28;20198;-84
2023/05/17 01:47:40;;;;;;;10.03;2.10;;;;;;;-145.69;100.00;52658.28;5062408;28;20233;-83
2023/05/17 01:50:08;;;;;;;2.60;1.80;;;;;;;-145.69;100.00;52662.22;5057108;28;20226;-84
2023/05/17 01:52:38;;;;;;;4.07;1.80;;;;;;;-145.69;100.00;52684.03;5053728;28;20203;-83
2023/05/17 01:55:10;;;;;;;3.83;1.70;;;;;;;-145.69;100.00;52682.03;5036650;28;20204;-85
2023/05/17 01:57:37;;;;;;;8.10;1.93;;;;;;;-145.69;100.00;52697.88;5052662;28;20223;-84
2023/05/17 02:00:08;;;;;;;6.40;2.00;;;;;;;-145.69;100.00;52644.41;5061124;28;20647;-84
2023/05/17 02:02:35;;;;;;;7.30;2.17;;;;;;;-145.69;100.00;52670.16;5053893;28;20218;-84
2023/05/17 02:05:02;;;;;;;6.47;1.70;;;;;;;-145.69;100.00;52672.13;5068723;28;20202;-84
2023/05/17 02:07:28;;;;;;;7.32;2.55;;;;;;;-145.69;100.00;52686.00;5073256;28;20445;-85
2023/05/17 02:09:55;;;;;;;3.77;2.23;;;;;;;-145.69;100.00;52686.00;5074128;28;20195;-85
2023/05/17 02:12:21;;;;;;;7.57;2.00;;;;;;;-145.69;100.00;52666.19;5074703;28;20248;-86
2023/05/17 02:14:48;;;;;;;5.63;2.10;;;;;;;-145.69;100.00;52682.03;5073020;28;20202;-82
2023/05/17 02:17:16;;;;;;;5.67;2.00;;;;;;;-145.69;100.00;52666.19;5072306;28;20230;-83
2023/05/17 02:19:43;;;;;;;3.80;2.07;;;;;;;-145.69;100.00;52666.19;5059928;28;20654;-84
2023/05/17 02:22:09;;;;;;;6.10;1.70;;;;;;;-145.69;100.00;52668.19;5053114;28;20203;-82
2023/05/17 02:24:36;;;;;;;7.43;2.07;;;;;;;-145.69;100.00;52654.31;5053373;28;20199;-83
2023/05/17 02:27:03;;;;;;;5.33;1.90;;;;;;;-145.69;100.00;52711.75;5053659;28;20283;-84
2023/05/17 02:29:30;;;;;;;10.63;1.83;;;;;;;-145.69;100.00;52686.00;5064144;28;20194;-86
2023/05/17 02:31:57;;;;;;;6.30;1.90;;;;;;;-145.69;100.00;52646.41;5073636;28;20202;-86
2023/05/17 02:34:24;;;;;;;5.63;2.37;;;;;;;-145.69;100.00;52638.47;5072957;28;20203;-84
2023/05/17 02:36:51;;;;;;;4.13;2.10;;;;;;;-145.69;100.00;52646.41;5073049;28;20241;-84
2023/05/17 02:39:18;;;;;;;4.03;2.13;;;;;;;-145.69;100.00;52701.84;5073309;28;20199;-84
2023/05/17 02:41:45;;;;;;;11.47;2.37;;;;;;;-145.69;100.00;52697.88;5073432;28;20202;-85
2023/05/17 02:44:11;;;;;;;7.73;2.13;;;;;;;-145.69;100.00;52686.00;5073357;28;20236;-84
2023/05/17 02:46:38;;;;;;;8.93;2.10;;;;;;;-145.69;100.00;52678.09;5073049;28;20676;-84
2023/05/17 02:49:04;;;;;;;6.87;2.00;;;;;;;-145.69;100.00;52686.00;5073177;28;20222;-82
2023/05/17 02:51:32;;;;;;;7.82;2.58;;;;;;;-145.69;100.00;52670.16;5072673;28;20445;-85
2023/05/17 02:53:58;;;;;;;6.07;2.17;;;;;;;-145.69;100.00;52701.84;5068529;28;20202;-85
2023/05/17 02:56:25;;;;;;;8.97;2.13;;;;;;;-145.69;100.00;52668.19;5063783;28;20271;-83
2023/05/17 02:58:51;;;;;;;5.20;2.33;;;;;;;-145.69;100.00;52676.09;5072273;28;20190;-84
2023/05/17 03:01:18;;;;;;;2.03;1.77;;;;;;;-145.69;100.00;52682.03;5062650;28;20711;-84
2023/05/17 03:03:44;;;;;;;5.40;2.13;;;;;;;-145.69;100.00;52666.19;5060942;28;20616;-84
2023/05/17 03:06:11;;;;;;;11.60;2.63;;;;;;;-145.69;100.00;52697.88;5076675;28;20280;-85
2023/05/17 03:08:39;;;;;;;7.07;2.00;;;;;;;-145.69;100.00;52650.34;5065415;28;20187;-84
2023/05/17 03:11:05;;;;;;;7.80;1.97;;;;;;;-145.69;100.00;52678.09;5076736;28;20561;-83
2023/05/17 03:13:32;;;;;;;5.10;2.43;;;;;;;-145.69;100.00;52705.81;5076386;28;20210;-81
2023/05/17 03:15:58;;;;;;;5.67;2.20;;;;;;;-145.69;100.00;52693.94;5076566;28;20648;-85
2023/05/17 03:18:25;;;;;;;4.90;2.10;;;;;;;-145.69;100.00;52666.19;5073307;28;20234;-82
2023/05/17 03:20:51;;;;;;;7.63;2.80;;;;;;;-145.69;100.00;52666.19;5076428;28;20681;-82
2023/05/17 03:23:18;;;;;;;6.73;2.47;;;;;;;-145.69;100.00;52674.13;5060946;28;20203;-81
2023/05/17 03:25:46;;;;;;;8.63;2.00;;;;;;;-145.69;100.00;52674.13;5059712;28;20195;-82
2023/05/17 03:28:20;;;;;;;7.03;2.10;;;;;;;-145.69;100.00;52658.28;5065667;28;20196;-81
2023/05/17 03:30:49;;;;;;;3.27;1.90;;;;;;;-145.69;100.00;52654.31;5057709;28;20195;-86
2023/05/17 03:33:17;;;;;;;6.93;3.07;;;;;;;-145.69;100.00;52684.03;5056706;28;20211;-87
2023/05/17 03:35:45;;;;;;;12.00;2.70;;;;;;;-145.69;100.00;52691.94;5057309;28;20210;-86
2023/05/17 03:38:12;;;;;;;7.27;2.30;;;;;;;-145.69;100.00;52691.94;5056740;28;20319;-86
2023/05/17 03:40:39;;;;;;;5.83;2.30;;;;;;;-145.69;100.00;52709.78;5056668;28;20207;-87
2023/05/17 03:43:13;;;;;;;10.83;2.50;;;;;;;-145.69;100.00;52707.78;5057020;28;20210;-86
2023/05/17 03:45:46;;;;;;;7.77;2.20;;;;;;;-145.69;100.00;52682.03;5057012;28;20198;-86
2023/05/17 03:48:16;;;;;;;10.47;2.37;;;;;;;-145.69;100.00;52693.94;5055710;28;20231;-84
2023/05/17 03:50:46;;;;;;;4.83;2.07;;;;;;;-145.69;100.00;52662.22;5055504;28;20681;-86
2023/05/17 03:53:13;;;;;;;3.53;2.07;;;;;;;-145.69;100.00;52719.66;5055491;28;20203;-85
2023/05/17 03:55:42;;;;;;;12.93;2.40;;;;;;;-145.69;100.00;52674.13;5055657;28;20199;-85
2023/05/17 03:58:11;;;;;;;10.77;2.60;;;;;;;-145.69;100.00;52658.28;5056531;28;20246;-86
2023/05/17 04:00:37;;;;;;;11.10;2.40;;;;;;;-145.69;100.00;52658.28;5055675;28;20586;-87
2023/05/17 04:03:11;;;;;;;5.37;2.30;;;;;;;-145.69;100.00;52705.81;5054140;28;20204;-86
2023/05/17 04:05:51;;;;;;;5.80;2.13;;;;;;;-145.69;100.00;52678.09;5055404;28;20207;-85
2023/05/17 04:08:17;;;;;;;2.27;1.73;;;;;;;-145.69;100.00;52686.00;5054200;28;20293;-86
2023/05/17 04:10:44;;;;;;;5.17;2.30;;;;;;;-145.69;100.00;52707.78;5055489;28;20207;-86
2023/05/17 04:13:15;;;;;;;5.93;1.97;;;;;;;-145.69;100.00;52654.31;5055222;28;20650;-86
2023/05/17 04:15:44;;;;;;;4.77;2.10;;;;;;;-145.69;100.00;52727.59;5055399;28;20214;-86
2023/05/17 04:18:10;;;;;;;7.60;2.30;;;;;;;-145.69;100.00;52670.16;5055018;28;20227;-86
2023/05/17 04:20:37;;;;;;;11.97;2.70;;;;;;;-145.69;100.00;52693.94;5055297;28;20207;-85
2023/05/17 04:23:06;;;;;;;8.57;2.47;;;;;;;-145.69;100.00;52695.91;5054854;28;20206;-86
2023/05/17 04:28:16;;;;;;;12.80;3.38;;;;;;;-145.69;100.00;52686.00;5054766;28;20919;-86
2023/05/17 04:30:44;;;;;;;6.10;2.27;;;;;;;-145.69;100.00;52693.94;5054836;28;20646;-86
2023/05/17 04:33:13;;;;;;;6.80;2.57;;;;;;;-145.69;100.00;52674.13;5054830;28;20237;-87
2023/05/17 04:35:47;;;;;;;8.33;3.17;;;;;;;-145.69;100.00;52713.72;5055265;28;20723;-86
2023/05/17 04:38:15;;;;;;;4.97;2.10;;;;;;;-145.69;100.00;52670.16;5054802;28;20227;-87
2023/05/17 04:40:42;;;;;;;5.47;2.07;;;;;;;-145.69;100.00;52682.03;5054874;28;20620;-87
2023/05/17 04:43:09;;;;;;;3.63;2.37;;;;;;;-145.69;100.00;52695.91;5054669;28;20249;-87
2023/05/17 04:45:37;;;;;;;4.00;2.33;;;;;;;-145.69;100.00;52693.94;5054984;28;20219;-87
2023/05/17 04:48:07;;;;;;;6.27;2.10;;;;;;;-145.69;100.00;52686.00;5016970;28;1089517;-86
2023/05/17 04:50:37;;;;;;;4.30;2.20;;;;;;;-145.69;100.00;52678.09;5055858;28;20199;-85
2023/05/17 04:53:07;;;;;;;4.47;2.40;;;;;;;-145.69;100.00;52654.31;5054380;28;20231;-86
2023/05/17 04:55:34;;;;;;;5.27;2.10;;;;;;;-145.69;100.00;52693.94;5054248;28;20192;-87
2023/05/17 04:58:00;;;;;;;4.20;2.40;;;;;;;-145.69;100.00;52676.09;5072653;28;20245;-87
2023/05/17 05:00:30;;;;;;;8.10;2.60;;;;;;;-145.69;100.00;52686.00;5074437;28;20203;-86
2023/05/17 05:03:08;;;;;;;7.27;2.47;;;;;;;-145.69;100.00;52670.16;5075327;28;20202;-86
2023/05/17 05:05:37;;;;;;;6.50;3.50;;;;;;;-145.69;100.00;52686.00;5064584;28;20222;-87
2023/05/17 05:08:11;;;;;;;12.05;3.10;;;;;;;-145.69;100.00;52672.13;5055468;28;20448;-86
2023/05/17 05:10:50;;;;;;;11.77;3.30;;;;;;;-145.69;100.00;52670.16;5055467;28;20211;-86
2023/05/17 05:13:16;;;;;;;8.53;3.07;;;;;;;-145.69;100.00;52650.34;5055336;28;20717;-87
2023/05/17 05:15:45;;;;;;;17.23;3.30;;;;;;;-145.69;100.00;52668.19;5053165;28;20246;-86
2023/05/17 05:18:13;;;;;;;11.70;2.67;;;;;;;-145.69;100.00;52713.72;5055151;28;20314;-86
2023/05/17 05:20:40;;;;;;;10.43;3.33;;;;;;;-145.69;100.00;52697.88;5055120;28;20196;-86
2023/05/17 05:23:08;;;;;;;6.57;2.43;;;;;;;-145.69;100.00;52686.00;5055208;28;20211;-86
2023/05/17 05:25:39;;;;;;;9.83;2.20;;;;;;;-145.69;100.00;52701.84;5037987;28;20200;-87
2023/05/17 05:28:05;;;;;;;7.50;2.53;;;;;;;-145.69;100.00;52674.13;5057569;28;20249;-86
2023/05/17 05:30:32;;;;;;;9.67;2.80;;;;;;;-145.69;100.00;52646.41;5055177;28;20206;-86
2023/05/17 05:33:06;;;;;;;8.30;2.53;;;;;;;-145.69;100.00;52682.03;5054564;28;20204;-85
2023/05/17 05:35:35;;;;;;;13.07;3.10;;;;;;;-145.69;100.00;52664.22;5054956;28;20317;-86
2023/05/17 05:38:04;;;;;;;9.10;3.00;;;;;;;-145.69;100.00;52666.19;5068530;28;20233;-86
2023/05/17 05:40:45;;;;;;;5.30;2.80;;;;;;;-145.69;100.00;52684.03;5074777;28;20195;-87
2023/05/17 05:43:13;;;;;;;5.00;2.50;;;;;;;-145.69;100.00;52638.47;5074879;28;20208;-87
2023/05/17 05:45:45;;;;;;;3.53;2.67;;;;;;;-145.69;100.00;52650.34;5074633;28;20206;-86
2023/05/17 05:48:13;;;;;;;6.87;2.20;;;;;;;-145.69;100.00;52642.44;5074284;28;20273;-87
2023/05/17 05:50:48;;;;;;;3.70;1.50;;;;;;;-145.69;100.00;52630.53;5074321;28;20202;-86
2023/05/17 05:53:17;;;;;;;8.63;1.87;;;;;;;-145.69;100.00;52638.47;5074421;28;20210;-87
2023/05/17 05:55:48;;;;;;;8.57;1.80;;;;;;;-145.69;100.00;52680.06;5074271;28;20206;-87
2023/05/17 05:58:14;;;;;;;9.07;1.90;;;;;;;-145.69;100.00;52650.34;5055419;28;20310;-87
2023/05/17 06:00:41;;;;;;;5.37;1.67;;;;;;;-145.69;100.00;52664.22;5054704;28;20566;-87
2023/05/17 06:03:07;;;;;;;8.07;2.00;;;;;;;-145.69;100.00;52646.41;5054304;28;20199;-87
2023/05/17 06:05:43;;;;;;;3.67;1.43;;;;;;;-145.69;100.00;52662.22;5054546;28;20210;-87
2023/05/17 06:08:09;;;;;;;4.07;1.60;;;;;;;-145.69;100.00;52652.34;5054304;28;20685;-88
2023/05/17 06:10:39;;;;;;;4.30;1.33;;;;;;;-145.69;100.00;52650.34;5054362;28;20202;-88
2023/05/17 06:13:07;;;;;;;5.47;1.58;;;;;;;-145.69;100.00;52630.53;5054252;28;20207;-87
2023/05/17 06:15:33;;;;;;;2.97;0.98;;;;;;;-145.69;100.00;52610.75;5052846;28;20238;-88
2023/05/17 06:18:00;;;;;;;4.75;1.23;;;;;;;-145.69;100.00;52594.91;5054486;28;20661;-87
2023/05/17 06:20:27;;;;;;;5.28;1.55;;;;;;;-145.69;100.00;52610.75;5053934;28;20199;-83
2023/05/17 06:22:55;;;;;;;8.45;1.80;;;;;;;-145.69;100.00;52614.72;5054187;28;20210;-85
2023/05/17 06:25:21;;;;;;;8.43;2.00;;;;;;;-145.69;100.00;52626.59;5053990;28;20528;-87
2023/05/17 06:27:48;;;;;;;5.33;1.57;;;;;;;-145.69;100.00;52628.56;5054355;28;20199;-87
2023/05/17 06:30:14;;;;;;;9.90;1.80;;;;;;;-145.69;100.00;52638.47;5072128;28;20561;-86
2023/05/17 06:32:41;;;;;;;5.63;1.83;;;;;;;-145.69;100.00;52602.81;5053385;28;20202;-86
2023/05/17 06:35:09;;;;;;;9.27;1.60;;;;;;;-145.69;100.00;52604.81;5054199;28;20203;-87
2023/05/17 06:37:35;;;;;;;9.20;1.77;;;;;;;-145.69;100.00;52620.66;5054570;28;20585;-86
2023/05/17 06:40:05;;;;;;;8.10;1.60;;;;;;;-145.69;100.00;52602.81;5055254;28;20654;-87
2023/05/17 06:42:31;;;;;;;5.47;1.63;;;;;;;-145.69;100.00;52654.31;5055121;28;20253;-88
2023/05/17 06:44:58;;;;;;;6.30;1.53;;;;;;;-145.69;100.00;52626.59;5054916;28;20207;-88
2023/05/17 06:47:25;;;;;;;5.07;1.50;;;;;;;-145.69;100.00;52612.72;5054580;28;20239;-87
2023/05/17 06:49:51;;;;;;;8.97;1.90;;;;;;;-145.69;100.00;52614.72;5054903;28;20226;-90
2023/05/17 06:52:18;;;;;;;5.80;1.50;;;;;;;-145.69;100.00;52614.72;5054531;28;20256;-88
2023/05/17 06:54:44;;;;;;;8.10;1.50;;;;;;;-145.69;100.00;52602.81;5055455;28;20210;-89
2023/05/17 06:57:12;;;;;;;7.23;1.80;;;;;;;-145.69;100.00;52604.81;5055954;28;20207;-86
2023/05/17 06:59:39;;;;;;;8.60;1.90;;;;;;;-145.69;100.00;52612.72;5054424;28;20200;-89
2023/05/17 07:02:06;;;;;;;9.73;1.93;;;;;;;-145.69;100.00;52608.75;5054719;28;20199;-89
2023/05/17 07:04:32;;;;;;;7.40;2.40;;;;;;;-145.69;100.00;52634.50;5056661;28;20206;-83
2023/05/17 07:06:59;;;;;;;4.97;1.80;;;;;;;-145.69;100.00;52630.53;5054292;28;20195;-89
2023/05/17 07:09:27;;;;;;;8.00;1.43;;;;;;;-145.69;100.00;52614.72;5054648;28;20654;-89
2023/05/17 07:11:56;;;;;;;8.00;2.27;;;;;;;-145.69;100.00;52608.75;5055023;28;20206;-86
2023/05/17 07:14:24;;;;;;;6.22;2.20;;;;;;;-145.69;100.00;52622.63;5053201;28;20439;-84
2023/05/17 07:16:50;;;;;;;8.50;1.90;;;;;;;-145.69;100.00;52602.81;5054933;28;20215;-86
2023/05/17 07:19:17;;;;;;;5.80;1.70;;;;;;;-145.69;100.00;52630.53;5043097;28;20694;-85
2023/05/17 07:21:43;;;;;;;11.90;2.10;;;;;;;-145.69;100.00;52616.69;5033973;28;20599;-88
2023/05/17 07:24:10;;;;;;;6.90;1.40;;;;;;;-145.69;100.00;52624.59;5035000;28;20210;-86
2023/05/17 07:26:36;;;;;;;6.67;1.87;;;;;;;-145.69;100.00;52638.47;5038495;28;20701;-85
2023/05/17 07:29:03;;;;;;;5.53;1.77;;;;;;;-145.69;100.00;52612.72;5056418;28;20211;-88
2023/05/17 07:31:31;;;;;;;7.30;1.80;;;;;;;-145.69;100.00;52612.72;5055578;28;20215;-89
2023/05/17 07:33:57;;;;;;;7.73;1.90;;;;;;;-145.69;100.00;52622.63;5055579;28;20196;-85
2023/05/17 07:36:26;;;;;;;10.07;2.30;;;;;;;-145.69;100.00;52606.78;5055120;28;20203;-89
2023/05/17 07:38:52;;;;;;;4.10;1.60;;;;;;;-145.69;100.00;52583.00;5055796;28;20258;-86
2023/05/17 07:41:21;;;;;;;5.70;1.83;;;;;;;-145.69;100.00;52622.63;5057687;28;20207;-87
2023/05/17 07:43:47;;;;;;;4.30;2.17;;;;;;;-145.69;100.00;52606.78;5058190;28;20203;-82
2023/05/17 07:46:14;;;;;;;8.57;1.90;;;;;;;-145.69;100.00;52638.47;5058008;28;20270;-87
2023/05/17 07:48:42;;;;;;;2.43;1.20;;;;;;;-145.69;100.00;52602.81;5057533;28;20231;-87
2023/05/17 07:51:08;;;;;;;8.33;2.03;;;;;;;-145.69;100.00;52638.47;5057613;28;20220;-84
2023/05/17 07:53:35;;;;;;;8.60;2.10;;;;;;;-145.69;100.00;52624.59;5057909;28;20200;-89
2023/05/17 07:56:01;;;;;;;5.53;1.80;;;;;;;-145.69;100.00;52602.81;5060878;28;20298;-88
2023/05/17 07:58:28;;;;;;;5.13;2.00;;;;;;;-145.69;100.00;52581.03;5074595;28;20222;-87
2023/05/17 08:00:55;;;;;;;6.80;1.73;;;;;;;-145.69;100.00;52586.97;5076324;28;20275;-88
2023/05/17 08:03:21;;;;;;;11.30;2.20;;;;;;;-145.69;100.00;52622.63;5080148;28;20241;-88
2023/05/17 08:05:49;;;;;;;9.17;2.00;;;;;;;-145.69;100.00;52594.91;5069266;28;20227;-84
2023/05/17 08:08:16;;;;;;;6.67;1.90;;;;;;;-145.69;100.00;52618.66;5057543;28;20203;-87
2023/05/17 08:10:42;;;;;;;15.00;2.40;;;;;;;-145.69;100.00;52549.34;5057091;28;20199;-88
2023/05/17 08:13:09;;;;;;;6.80;2.33;;;;;;;-145.69;100.00;52608.75;5057924;28;20226;-87
2023/05/17 08:15:35;;;;;;;7.13;2.00;;;;;;;-145.69;100.00;52577.06;5058331;28;20200;-89
2023/05/17 08:18:02;;;;;;;6.73;2.07;;;;;;;-145.69;100.00;52598.84;5057787;28;20226;-86
2023/05/17 08:20:28;;;;;;;9.00;2.30;;;;;;;-145.69;98.38;52618.66;5058082;28;20208;-84
2023/05/17 08:22:56;;;;;;;8.53;2.47;;;;;;;-145.69;100.00;52577.06;5058700;28;20539;-88
2023/05/17 08:25:23;;;;;;;6.17;2.30;;;;;;;-145.69;100.00;52585.00;5058751;28;20205;-89
2023/05/17 08:27:50;;;;;;;9.37;2.43;;;;;;;-145.69;100.00;52581.03;5058010;28;20197;-87
2023/05/17 08:30:16;;;;;;;5.63;2.17;;;;;;;-145.69;95.68;52577.06;5057763;28;20203;-84
2023/05/17 08:32:44;;;;;;;9.23;2.30;;;;;;;-145.69;98.35;52590.94;5058293;28;20208;-86
2023/05/17 08:35:11;;;;;;;6.67;2.53;;;;;;;-145.69;96.06;52583.00;5060998;28;20208;-85
2023/05/17 08:37:38;;;;;;;10.10;2.53;;;;;;;-145.69;96.50;52614.72;5056704;28;20219;-90
2023/05/17 08:40:07;;;;;;;4.77;2.00;;;;;;;-145.69;93.67;52586.97;5057137;28;20697;-84
2023/05/17 08:42:36;;;;;;;7.40;2.47;;;;;;;-145.69;94.43;52563.22;5057668;28;20200;-84
2023/05/17 08:45:03;;;;;;;6.40;2.10;;;;;;;-145.69;91.32;52551.31;5058925;28;20213;-87
2023/05/17 08:47:32;;;;;;;6.13;2.00;;;;;;;-145.69;90.95;52561.22;5056749;28;20239;-86
2023/05/17 08:49:59;;;;;;;9.80;2.20;;;;;;;-145.69;91.86;52545.38;5056832;28;20235;-89
2023/05/17 08:52:30;;;;;;;7.37;2.80;;;;;;;-145.69;83.95;52575.09;5057002;28;20657;-87
2023/05/17 08:54:56;;;;;;;4.47;1.63;;;;;;;-145.69;93.38;52575.09;5057077;28;20196;-87
2023/05/17 08:57:26;;;;;;;5.50;2.27;;;;;;;-145.69;90.86;52583.00;5061419;28;20202;-88
2023/05/17 08:59:54;;;;;;;6.03;2.37;;;;;;;-145.69;98.00;52571.13;5079213;28;20230;-89
2023/05/17 09:02:22;;;;;;;12.03;2.30;;;;;;;-145.69;86.88;52527.56;5078586;28;20211;-89
2023/05/17 09:04:54;;;;;;;6.57;2.57;;;;;;;-145.69;81.39;52598.84;5077976;28;20199;-84
2023/05/17 09:07:21;;;;;;;10.73;2.87;;;;;;;-145.69;79.73;52590.94;5060365;28;20207;-85
2023/05/17 09:09:50;;;;;;;6.40;2.13;;;;;;;-145.69;81.00;52577.06;5056927;28;20631;-86
2023/05/17 09:12:17;;;;;;;8.37;2.00;;;;;;;-145.69;85.91;52590.94;5057440;28;20533;-88
2023/05/17 09:14:45;;;;;;;7.13;1.83;;;;;;;-145.69;79.54;52577.06;5057549;28;20213;-87
2023/05/17 09:17:14;;;;;;;8.33;2.30;;;;;;;-145.69;79.49;52561.22;5054173;28;20257;-84
2023/05/17 09:19:44;;;;;;;7.80;2.00;;;;;;;-145.69;78.93;52569.16;5057821;28;20314;-82
2023/05/17 09:22:12;;;;;;;6.30;1.83;;;;;;;-145.69;76.46;52547.38;5059109;28;20295;-83
2023/05/17 09:24:40;;;;;;;5.83;2.00;;;;;;;-145.69;75.72;52592.91;5056598;28;20641;-85
2023/05/17 09:27:06;;;;;;;8.77;1.93;;;;;;;-145.69;69.36;52555.28;5055596;28;20287;-86
2023/05/17 09:29:35;;;;;;;5.67;1.80;;;;;;;-145.69;81.85;52541.44;5076745;28;20191;-81
2023/05/17 09:32:16;;;;;;;5.40;2.00;;;;;;;-145.69;74.94;52559.25;5076742;28;20264;-88
2023/05/17 09:34:45;;;;;;;11.10;2.43;;;;;;;-145.69;73.55;52523.59;5076966;28;20198;-89
2023/05/17 09:37:16;;;;;;;6.80;2.37;;;;;;;-145.69;79.56;52555.28;5078107;28;20285;-90
2023/05/17 09:39:45;;;;;;;13.25;2.80;;;;;;;-145.69;75.35;52539.44;5076979;28;20232;-86
2023/05/17 09:42:11;;;;;;;4.93;2.10;;;;;;;-145.69;75.47;52523.59;5077953;28;20205;-88
2023/05/17 09:44:50;;;;;;;6.47;2.13;;;;;;;-145.69;83.14;52561.22;5077849;28;20198;-89
2023/05/17 09:47:26;;;;;;;2.80;1.90;;;;;;;-145.69;74.70;52559.25;5077125;28;20221;-88
2023/05/17 09:49:53;;;;;;;10.37;2.87;;;;;;;-145.69;82.60;52555.28;5077493;28;20215;-89
2023/05/17 09:52:20;;;;;;;5.47;2.30;;;;;;;-145.69;83.31;52523.59;5080647;28;20195;-89
2023/05/17 09:54:53;;;;;;;7.60;2.60;;;;;;;-145.69;74.98;52517.66;5076073;28;20630;-87
2023/05/17 09:57:19;;;;;;;5.07;2.20;;;;;;;-145.69;68.47;52579.06;5075440;28;20249;-83
2023/05/17 09:59:47;;;;;;;8.77;2.33;;;;;;;-145.69;71.45;52533.50;5058655;28;20238;-87
2023/05/17 10:02:20;;;;;;;6.60;2.40;;;;;;;-145.69;62.62;52535.47;5058101;28;20203;-89
2023/05/17 10:04:49;;;;;;;9.90;2.40;;;;;;;-145.69;63.04;52527.56;5056293;28;20249;-86
2023/05/17 10:07:19;;;;;;;4.53;2.28;;;;;;;-145.69;66.88;52543.41;5056281;28;20203;-88
2023/05/17 10:09:47;;;;;;;4.65;2.13;;;;;;;-145.69;61.31;52527.56;5056072;28;20211;-87
2023/05/17 10:12:21;;;;;;;5.40;1.95;;;;;;;-145.69;61.19;52529.53;5055033;28;20205;-85
2023/05/17 10:14:48;;;;;;;6.53;2.20;;;;;;;-145.69;61.59;52517.66;5056166;28;20644;-84
2023/05/17 10:17:16;;;;;;;4.22;2.42;;;;;;;-145.69;61.11;52549.34;5056217;28;20203;-87
2023/05/17 10:19:43;;;;;;;8.15;2.38;;;;;;;-145.69;62.87;52519.63;5056487;28;20227;-87
2023/05/17 10:22:11;;;;;;;4.47;2.17;;;;;;;-145.69;68.36;52553.31;5055552;28;20218;-88
2023/05/17 10:24:39;;;;;;;6.25;2.47;;;;;;;-145.69;69.26;52537.47;5057092;28;20203;-86
2023/05/17 10:27:07;;;;;;;5.20;2.47;;;;;;;-145.69;67.92;52519.63;5057565;28;20207;-88
2023/05/17 10:29:34;;;;;;;7.05;2.40;;;;;;;-145.69;64.44;52543.41;5036758;28;20200;-88
2023/05/17 10:32:06;;;;;;;6.90;2.05;;;;;;;-145.69;64.09;52519.63;5035271;28;20200;-86
2023/05/17 10:34:34;;;;;;;7.63;2.40;;;;;;;-145.69;62.23;52507.75;5047389;28;20223;-89
2023/05/17 10:37:06;;;;;;;5.13;2.10;;;;;;;-145.69;62.37;52480.03;5056585;28;20206;-89
2023/05/17 10:39:37;;;;;;;10.15;2.25;;;;;;;-145.69;62.53;52456.28;5057456;28;20219;-89
2023/05/17 10:42:07;;;;;;;6.95;2.45;;;;;;;-145.69;60.05;52501.81;5055678;28;20208;-88
2023/05/17 10:44:35;;;;;;;6.65;2.47;;;;;;;-145.69;60.54;52495.88;5055735;28;20737;-88
2023/05/17 10:47:02;;;;;;;5.65;2.47;;;;;;;-145.69;55.84;52452.31;5055818;28;20222;-88
2023/05/17 10:49:31;;;;;;;5.85;2.70;;;;;;;-145.69;56.29;52499.84;5054024;28;20210;-87
2023/05/17 10:51:58;;;;;;;9.20;2.80;;;;;;;-145.69;61.16;52499.84;5054224;28;20199;-84
2023/05/17 10:54:37;;;;;;;9.48;3.10;;;;;;;-145.69;62.75;52495.88;5055415;28;20195;-83
2023/05/17 10:57:05;;;;;;;6.13;2.30;;;;;;;-145.69;56.52;52515.69;5055051;28;20245;-85
2023/05/17 10:59:34;;;;;;;5.95;2.80;;;;;;;-145.69;56.50;52480.03;5074174;28;20230;-88
2023/05/17 11:02:03;;;;;;;8.70;2.95;;;;;;;-145.69;51.24;52505.78;5074912;28;20203;-83
2023/05/17 11:04:34;;;;;;;11.48;2.60;;;;;;;-145.69;59.94;52527.56;5074367;28;20237;-86
2023/05/17 11:07:23;;;;;;;6.40;2.40;;;;;;;-145.69;57.53;52503.81;5075083;28;20198;-85
2023/05/17 11:09:53;;;;;;;6.13;2.63;;;;;;;-145.69;55.54;52472.13;5074670;28;20199;-88
2023/05/17 11:12:33;;;;;;;7.53;2.75;;;;;;;-145.69;60.22;52507.75;5056578;28;20202;-88
2023/05/17 11:15:00;;;;;;;5.07;2.50;;;;;;;-145.69;59.65;52495.88;5057625;28;20223;-84
2023/05/17 11:17:33;;;;;;;6.93;2.67;;;;;;;-145.69;61.76;52474.09;5058771;28;20294;-86